createdAt,value
2016-04-11T00:00:13.599Z,994.77
2016-04-11T00:01:13.601Z,994.81
2016-04-11T00:02:13.589Z,994.77
2016-04-11T00:03:13.592Z,994.76
2016-04-11T00:04:13.594Z,994.77
2016-04-11T00:05:13.597Z,994.75
2016-04-11T00:06:13.599Z,994.73
2016-04-11T00:07:13.603Z,994.7
2016-04-11T00:08:13.605Z,994.7
2016-04-11T00:09:13.592Z,994.7
2016-04-11T00:10:13.611Z,994.72
2016-04-11T00:11:13.598Z,994.7
2016-04-11T00:12:13.600Z,994.71
2016-04-11T00:13:13.618Z,994.71
2016-04-11T00:14:13.605Z,994.66
2016-04-11T00:15:13.609Z,994.71
2016-04-11T00:16:13.612Z,994.72
2016-04-11T00:17:13.598Z,994.69
2016-04-11T00:18:13.601Z,994.69
2016-04-11T00:19:13.620Z,994.71
2016-04-11T00:20:13.607Z,994.68
2016-04-11T00:21:13.812Z,994.72
2016-04-11T00:23:13.615Z,994.76
2016-04-11T00:24:13.617Z,994.78
2016-04-11T00:25:13.605Z,994.77
2016-04-11T00:26:13.622Z,994.75
2016-04-11T00:27:13.610Z,994.74
2016-04-11T00:28:13.613Z,994.75
2016-04-11T00:29:13.647Z,994.77
2016-04-11T00:30:13.633Z,994.8
2016-04-11T00:31:13.621Z,994.77
2016-04-11T00:32:13.624Z,994.78
2016-04-11T00:33:13.620Z,994.75
2016-04-11T00:34:13.614Z,994.78
2016-04-11T00:35:13.617Z,994.77
2016-04-11T00:36:13.640Z,994.78
2016-04-11T00:37:13.611Z,994.81
2016-04-11T00:38:13.614Z,994.78
2016-04-11T00:39:13.617Z,994.79
2016-04-11T00:40:13.619Z,994.8
2016-04-11T00:41:13.622Z,994.81
2016-04-11T00:42:13.624Z,994.82
2016-04-11T00:43:13.627Z,994.82
2016-04-11T00:44:13.630Z,994.83
2016-04-11T00:45:13.821Z,994.83
2016-04-11T00:46:13.620Z,994.82
2016-04-11T00:47:13.623Z,994.86
2016-04-11T00:48:13.626Z,994.82
2016-04-11T00:49:13.629Z,994.83
2016-04-11T00:50:13.631Z,994.84
2016-04-11T00:51:13.618Z,994.79
2016-04-11T00:52:13.621Z,994.78
2016-04-11T00:53:13.624Z,994.79
2016-04-11T00:54:13.626Z,994.77
2016-04-11T00:55:13.629Z,994.79
2016-04-11T00:56:13.631Z,994.73
2016-04-11T00:59:13.639Z,994.74
2016-04-11T01:01:13.661Z,994.74
2016-04-11T01:02:13.647Z,994.72
2016-04-11T01:03:13.666Z,994.74
2016-04-11T01:04:13.636Z,994.74
2016-04-11T01:05:13.639Z,994.73
2016-04-11T01:06:13.642Z,994.73
2016-04-11T01:07:13.645Z,994.72
2016-04-11T01:08:13.664Z,994.73
2016-04-11T01:09:13.651Z,994.73
2016-04-11T01:10:13.643Z,994.74
2016-04-11T01:11:13.646Z,994.76
2016-04-11T01:12:13.648Z,994.72
2016-04-11T01:13:13.651Z,994.74
2016-04-11T01:14:13.654Z,994.73
2016-04-11T01:15:13.656Z,994.73
2016-04-11T01:16:13.644Z,994.72
2016-04-11T01:17:13.646Z,994.75
2016-04-11T01:18:13.665Z,994.72
2016-04-11T01:19:13.667Z,994.74
2016-04-11T01:20:13.654Z,994.73
2016-04-11T01:21:13.657Z,994.72
2016-04-11T01:22:13.659Z,994.74
2016-04-11T01:23:13.662Z,994.72
2016-04-11T01:24:13.664Z,994.73
2016-04-11T01:25:13.667Z,994.73
2016-04-11T01:26:13.654Z,994.78
2016-04-11T01:27:13.657Z,994.74
2016-04-11T01:28:13.659Z,994.78
2016-04-11T01:29:13.694Z,994.77
2016-04-11T01:30:13.665Z,994.77
2016-04-11T01:31:13.667Z,994.75
2016-04-11T01:32:13.670Z,994.76
2016-04-11T01:33:13.673Z,994.78
2016-04-11T01:34:13.676Z,994.77
2016-04-11T01:36:13.666Z,994.74
2016-04-11T01:37:13.668Z,994.8
2016-04-11T01:38:13.671Z,994.78
2016-04-11T01:39:13.674Z,994.75
2016-04-11T01:40:13.676Z,994.75
2016-04-11T01:41:13.680Z,994.75
2016-04-11T01:42:13.682Z,994.74
2016-04-11T01:43:13.685Z,994.69
2016-04-11T01:44:13.687Z,994.7
2016-04-11T01:45:13.674Z,994.67
2016-04-11T01:46:13.880Z,994.66
2016-04-11T01:47:13.680Z,994.67
2016-04-11T01:48:13.682Z,994.68
2016-04-11T01:49:13.685Z,994.65
2016-04-11T01:50:13.687Z,994.66
2016-04-11T01:51:13.690Z,994.64
2016-04-11T01:52:13.709Z,994.66
2016-04-11T01:54:13.699Z,994.71
2016-04-11T01:55:13.686Z,994.75
2016-04-11T01:56:13.704Z,994.72
2016-04-11T01:57:13.691Z,994.69
2016-04-11T01:58:13.694Z,994.73
2016-04-11T01:59:13.697Z,994.75
2016-04-11T02:00:13.699Z,994.72
2016-04-11T02:01:13.702Z,994.71
2016-04-11T02:02:13.704Z,994.73
2016-04-11T02:03:13.910Z,994.7
2016-04-11T02:04:13.710Z,994.67
2016-04-11T02:05:13.697Z,994.67
2016-04-11T02:06:13.715Z,994.7
2016-04-11T02:07:13.703Z,994.66
2016-04-11T02:08:13.721Z,994.64
2016-04-11T02:09:13.724Z,994.65
2016-04-11T02:10:13.726Z,994.63
2016-04-11T02:11:13.713Z,994.61
2016-04-11T02:12:13.732Z,994.57
2016-04-11T02:13:13.718Z,994.57
2016-04-11T02:14:13.705Z,994.6
2016-04-11T02:15:13.739Z,994.51
2016-04-11T02:16:13.711Z,994.57
2016-04-11T02:17:13.713Z,994.56
2016-04-11T02:18:13.716Z,994.58
2016-04-11T02:19:13.718Z,994.56
2016-04-11T02:20:13.925Z,994.58
2016-04-11T02:21:13.724Z,994.57
2016-04-11T02:22:13.726Z,994.56
2016-04-11T02:23:13.714Z,994.55
2016-04-11T02:24:13.717Z,994.52
2016-04-11T02:25:13.735Z,994.51
2016-04-11T02:26:13.940Z,994.53
2016-04-11T02:27:13.756Z,994.56
2016-04-11T02:28:13.727Z,994.55
2016-04-11T02:29:13.730Z,994.51
2016-04-11T02:30:13.733Z,994.54
2016-04-11T02:31:13.736Z,994.54
2016-04-11T02:32:13.738Z,994.52
2016-04-11T02:33:13.726Z,994.52
2016-04-11T02:34:13.728Z,994.53
2016-04-11T02:35:13.731Z,994.52
2016-04-11T02:36:13.936Z,994.52
2016-04-11T02:37:13.736Z,994.51
2016-04-11T02:38:13.739Z,994.52
2016-04-11T02:39:13.742Z,994.51
2016-04-11T02:40:13.744Z,994.46
2016-04-11T02:41:13.747Z,994.45
2016-04-11T02:42:13.874Z,994.42
2016-04-11T02:43:13.736Z,994.5
2016-04-11T02:44:13.770Z,994.43
2016-04-11T02:45:13.741Z,994.45
2016-04-11T02:46:13.744Z,994.43
2016-04-11T02:47:13.732Z,994.4
2016-04-11T02:48:13.735Z,994.45
2016-04-11T02:49:13.737Z,994.43
2016-04-11T02:50:13.739Z,994.4
2016-04-11T02:52:13.948Z,994.38
2016-04-11T02:53:13.748Z,994.37
2016-04-11T02:54:13.734Z,994.4
2016-04-11T02:55:13.737Z,994.35
2016-04-11T02:56:13.739Z,994.36
2016-04-11T02:57:13.774Z,994.38
2016-04-11T02:58:13.745Z,994.38
2016-04-11T02:59:13.748Z,994.36
2016-04-11T03:00:13.751Z,994.33
2016-04-11T03:01:13.989Z,994.38
2016-04-11T03:02:13.756Z,994.35
2016-04-11T03:03:13.743Z,994.35
2016-04-11T03:04:13.746Z,994.39
2016-04-11T03:05:13.749Z,994.36
2016-04-11T03:06:13.752Z,994.42
2016-04-11T03:07:13.754Z,994.43
2016-04-11T03:08:13.757Z,994.41
2016-04-11T03:09:13.759Z,994.44
2016-04-11T03:10:13.762Z,994.43
2016-04-11T03:11:13.749Z,994.44
2016-04-11T03:12:13.768Z,994.43
2016-04-11T03:13:13.754Z,994.45
2016-04-11T03:15:13.760Z,994.39
2016-04-11T03:16:13.763Z,994.45
2016-04-11T03:17:13.749Z,994.45
2016-04-11T03:18:13.768Z,994.45
2016-04-11T03:19:13.771Z,994.5
2016-04-11T03:20:13.757Z,994.48
2016-04-11T03:21:13.760Z,994.44
2016-04-11T03:22:13.763Z,994.42
2016-04-11T03:23:13.765Z,994.45
2016-04-11T03:24:13.768Z,994.4
2016-04-11T03:25:13.787Z,994.4
2016-04-11T03:26:13.773Z,994.41
2016-04-11T03:28:13.764Z,994.34
2016-04-11T03:29:13.767Z,994.34
2016-04-11T03:30:13.769Z,994.38
2016-04-11T03:31:13.772Z,994.38
2016-04-11T03:32:13.774Z,994.37
2016-04-11T03:33:13.761Z,994.39
2016-04-11T03:34:13.764Z,994.41
2016-04-11T03:35:13.767Z,994.42
2016-04-11T03:36:13.769Z,994.39
2016-04-11T03:37:13.772Z,994.37
2016-04-11T03:38:13.774Z,994.37
2016-04-11T03:39:13.981Z,994.39
2016-04-11T03:40:13.764Z,994.36
2016-04-11T03:41:13.783Z,994.38
2016-04-11T03:42:13.770Z,994.36
2016-04-11T03:43:13.773Z,994.35
2016-04-11T03:44:13.775Z,994.34
2016-04-11T03:45:13.794Z,994.41
2016-04-11T03:46:13.780Z,994.4
2016-04-11T03:47:13.783Z,994.38
2016-04-11T03:48:13.786Z,994.38
2016-04-11T03:49:13.805Z,994.38
2016-04-11T03:50:13.776Z,994.44
2016-04-11T03:51:13.779Z,994.41
2016-04-11T03:52:13.781Z,994.43
2016-04-11T03:53:13.784Z,994.46
2016-04-11T03:54:13.787Z,994.45
2016-04-11T03:55:13.789Z,994.49
2016-04-11T03:56:13.792Z,994.47
2016-04-11T03:57:13.779Z,994.48
2016-04-11T03:58:13.782Z,994.49
2016-04-11T03:59:13.784Z,994.51
2016-04-11T04:00:13.803Z,994.48
2016-04-11T04:01:13.789Z,994.5
2016-04-11T04:02:13.793Z,994.51
2016-04-11T04:03:13.795Z,994.53
2016-04-11T04:04:13.783Z,994.54
2016-04-11T04:05:13.785Z,994.54
2016-04-11T04:06:13.788Z,994.54
2016-04-11T04:07:13.790Z,994.54
2016-04-11T04:08:13.794Z,994.56
2016-04-11T04:09:13.796Z,994.59
2016-04-11T04:10:14.002Z,994.55
2016-04-11T04:11:13.801Z,994.56
2016-04-11T04:12:13.805Z,994.59
2016-04-11T04:13:13.791Z,994.57
2016-04-11T04:14:13.794Z,994.55
2016-04-11T04:15:13.796Z,994.51
2016-04-11T04:16:13.815Z,994.51
2016-04-11T04:17:13.802Z,994.56
2016-04-11T04:18:13.805Z,994.51
2016-04-11T04:19:13.807Z,994.55
2016-04-11T04:20:13.810Z,994.56
2016-04-11T04:21:13.796Z,994.55
2016-04-11T04:22:13.799Z,994.54
2016-04-11T04:23:13.802Z,994.56
2016-04-11T04:24:13.838Z,994.53
2016-04-11T04:25:13.884Z,994.54
2016-04-11T04:26:14.134Z,994.51
2016-04-11T04:27:13.977Z,994.53
2016-04-11T04:28:14.009Z,994.56
2016-04-11T04:29:14.034Z,994.56
2016-04-11T04:30:14.052Z,994.57
2016-04-11T04:31:14.070Z,994.58
2016-04-11T04:32:14.090Z,994.59
2016-04-11T04:33:14.108Z,994.59
2016-04-11T04:34:14.102Z,994.61
2016-04-11T04:35:14.110Z,994.62
2016-04-11T04:36:14.119Z,994.55
2016-04-11T04:37:14.331Z,994.61
2016-04-11T04:38:14.152Z,994.65
2016-04-11T04:39:14.142Z,994.65
2016-04-11T04:40:14.146Z,994.65
2016-04-11T04:41:14.151Z,994.64
2016-04-11T04:42:14.140Z,994.62
2016-04-11T04:43:14.144Z,994.62
2016-04-11T04:44:14.148Z,994.65
2016-04-11T04:45:14.167Z,994.65
2016-04-11T04:46:14.154Z,994.58
2016-04-11T04:47:14.143Z,994.63
2016-04-11T04:48:14.162Z,994.62
2016-04-11T04:49:14.353Z,994.61
2016-04-11T04:50:14.153Z,994.6
2016-04-11T04:51:14.156Z,994.61
2016-04-11T04:52:14.174Z,994.6
2016-04-11T04:54:14.165Z,994.56
2016-04-11T04:55:14.167Z,994.63
2016-04-11T04:56:14.154Z,994.62
2016-04-11T04:57:14.188Z,994.63
2016-04-11T04:58:14.176Z,994.59
2016-04-11T04:59:14.162Z,994.63
2016-04-11T05:00:14.165Z,994.62
2016-04-11T05:01:14.167Z,994.63
2016-04-11T05:02:14.171Z,994.61
2016-04-11T05:03:14.189Z,994.63
2016-04-11T05:04:14.176Z,994.65
2016-04-11T05:05:14.164Z,994.67
2016-04-11T05:06:14.166Z,994.64
2016-04-11T05:07:14.169Z,994.62
2016-04-11T05:08:14.171Z,994.65
2016-04-11T05:09:14.174Z,994.67
2016-04-11T05:10:14.411Z,994.65
2016-04-11T05:11:14.180Z,994.68
2016-04-11T05:12:14.166Z,994.64
2016-04-11T05:13:14.185Z,994.65
2016-04-11T05:14:14.171Z,994.67
2016-04-11T05:15:14.174Z,994.68
2016-04-11T05:16:14.193Z,994.68
2016-04-11T05:17:14.180Z,994.72
2016-04-11T05:18:14.182Z,994.75
2016-04-11T05:19:14.201Z,994.72
2016-04-11T05:20:14.172Z,994.75
2016-04-11T05:21:14.174Z,994.77
2016-04-11T05:22:14.177Z,994.76
2016-04-11T05:23:14.180Z,994.79
2016-04-11T05:24:14.182Z,994.77
2016-04-11T05:25:14.185Z,994.76
2016-04-11T05:26:14.204Z,994.79
2016-04-11T05:27:14.176Z,994.76
2016-04-11T05:28:14.179Z,994.8
2016-04-11T05:29:14.181Z,994.8
2016-04-11T05:30:14.199Z,994.82
2016-04-11T05:31:14.389Z,994.79
2016-04-11T05:32:14.189Z,994.79
2016-04-11T05:33:14.192Z,994.79
2016-04-11T05:34:14.194Z,994.85
2016-04-11T05:35:14.212Z,994.85
2016-04-11T05:36:14.215Z,994.82
2016-04-11T05:37:14.186Z,994.84
2016-04-11T05:38:14.189Z,994.81
2016-04-11T05:39:14.192Z,994.86
2016-04-11T05:40:14.194Z,994.83
2016-04-11T05:41:14.197Z,994.81
2016-04-11T05:42:14.201Z,994.82
2016-04-11T05:43:14.203Z,994.83
2016-04-11T05:44:14.206Z,994.84
2016-04-11T05:45:14.396Z,994.84
2016-04-11T05:46:14.195Z,994.83
2016-04-11T05:47:14.198Z,994.8
2016-04-11T05:48:14.200Z,994.83
2016-04-11T05:49:14.203Z,994.84
2016-04-11T05:50:14.205Z,994.84
2016-04-11T05:51:14.427Z,994.86
2016-04-11T05:52:14.196Z,994.83
2016-04-11T05:53:14.214Z,994.84
2016-04-11T05:54:14.216Z,994.82
2016-04-11T05:55:14.204Z,994.81
2016-04-11T05:56:14.207Z,994.78
2016-04-11T05:57:14.210Z,994.78
2016-04-11T05:58:14.212Z,994.78
2016-04-11T05:59:14.230Z,994.75
2016-04-11T06:00:14.218Z,994.76
2016-04-11T06:01:14.220Z,994.75
2016-04-11T06:02:14.223Z,994.8
2016-04-11T06:03:14.225Z,994.8
2016-04-11T06:04:14.228Z,994.84
2016-04-11T06:05:14.215Z,994.83
2016-04-11T06:06:14.234Z,994.86
2016-04-11T06:07:14.236Z,994.85
2016-04-11T06:08:14.427Z,994.87
2016-04-11T06:09:14.225Z,994.87
2016-04-11T06:10:14.228Z,994.88
2016-04-11T06:11:14.231Z,994.91
2016-04-11T06:12:14.234Z,994.97
2016-04-11T06:13:14.236Z,994.93
2016-04-11T06:14:14.239Z,994.97
2016-04-11T06:15:14.242Z,994.95
2016-04-11T06:16:14.245Z,994.98
2016-04-11T06:17:14.248Z,994.98
2016-04-11T06:18:14.250Z,994.97
2016-04-11T06:19:14.268Z,994.95
2016-04-11T06:20:14.241Z,994.97
2016-04-11T06:21:14.258Z,994.97
2016-04-11T06:22:14.245Z,994.99
2016-04-11T06:23:14.280Z,994.96
2016-04-11T06:24:14.485Z,994.98
2016-04-11T06:25:14.269Z,994.97
2016-04-11T06:26:14.257Z,994.98
2016-04-11T06:27:14.259Z,994.97
2016-04-11T06:28:14.262Z,995.01
2016-04-11T06:29:14.265Z,995.04
2016-04-11T06:30:14.282Z,995.06
2016-04-11T06:31:14.270Z,995.04
2016-04-11T06:32:14.273Z,994.99
2016-04-11T06:33:14.276Z,995
2016-04-11T06:34:14.512Z,995
2016-04-11T06:35:14.295Z,994.99
2016-04-11T06:36:14.268Z,994.95
2016-04-11T06:37:14.270Z,994.96
2016-04-11T06:38:14.272Z,994.95
2016-04-11T06:39:14.338Z,994.94
2016-04-11T06:40:14.309Z,994.92
2016-04-11T06:41:14.281Z,994.94
2016-04-11T06:42:14.284Z,994.96
2016-04-11T06:43:14.286Z,994.93
2016-04-11T06:44:14.289Z,994.91
2016-04-11T06:45:14.292Z,994.96
2016-04-11T06:46:14.310Z,994.96
2016-04-11T06:47:14.297Z,994.93
2016-04-11T06:48:14.331Z,994.95
2016-04-11T06:49:14.319Z,994.95
2016-04-11T06:50:14.352Z,994.95
2016-04-11T06:51:14.448Z,994.92
2016-04-11T06:52:14.561Z,994.89
2016-04-11T06:53:14.454Z,994.91
2016-04-11T06:54:14.393Z,994.9
2016-04-11T06:55:14.381Z,994.95
2016-04-11T06:56:14.462Z,994.97
2016-04-11T06:57:14.324Z,994.99
2016-04-11T06:58:14.327Z,994.98
2016-04-11T06:59:14.329Z,995
2016-04-11T07:00:14.457Z,994.98
2016-04-11T07:01:14.350Z,994.93
2016-04-11T07:02:14.478Z,994.98
2016-04-11T07:04:14.343Z,994.95
2016-04-11T07:05:14.377Z,994.98
2016-04-11T07:06:14.348Z,994.98
2016-04-11T07:07:14.351Z,994.99
2016-04-11T07:08:14.354Z,995
2016-04-11T07:09:14.372Z,995.01
2016-04-11T07:10:14.359Z,995.02
2016-04-11T07:11:14.377Z,995.01
2016-04-11T07:12:14.395Z,995.08
2016-04-11T07:13:14.367Z,995.08
2016-04-11T07:14:14.369Z,995.08
2016-04-11T07:15:14.388Z,995.11
2016-04-11T07:16:14.391Z,995.14
2016-04-11T07:17:14.394Z,995.12
2016-04-11T07:18:14.412Z,995.13
2016-04-11T07:19:14.399Z,995.19
2016-04-11T07:20:14.402Z,995.18
2016-04-11T07:21:14.404Z,995.17
2016-04-11T07:22:14.407Z,995.18
2016-04-11T07:23:14.410Z,995.21
2016-04-11T07:24:14.412Z,995.16
2016-04-11T07:25:14.416Z,995.16
2016-04-11T07:26:14.419Z,995.18
2016-04-11T07:27:14.829Z,995.19
2016-04-11T07:28:14.424Z,995.16
2016-04-11T07:29:14.443Z,995.2
2016-04-11T07:30:14.429Z,995.2
2016-04-11T07:32:14.436Z,995.21
2016-04-11T07:33:17.454Z,995.2
2016-04-11T07:34:14.456Z,995.2
2016-04-11T07:35:14.459Z,995.19
2016-04-11T07:36:14.462Z,995.2
2016-04-11T07:37:14.464Z,995.18
2016-04-11T07:38:14.467Z,995.19
2016-04-11T07:39:14.470Z,995.16
2016-04-11T07:40:14.489Z,995.16
2016-04-11T07:41:14.491Z,995.14
2016-04-11T07:42:14.712Z,995.17
2016-04-11T07:43:14.512Z,995.23
2016-04-11T07:44:14.499Z,995.15
2016-04-11T07:45:14.502Z,995.15
2016-04-11T07:46:14.505Z,995.13
2016-04-11T07:47:14.507Z,995.14
2016-04-11T07:48:14.511Z,995.13
2016-04-11T07:49:14.513Z,995.1
2016-04-11T07:50:14.531Z,995.1
2016-04-11T07:51:14.518Z,995.12
2016-04-11T07:52:14.535Z,995.12
2016-04-11T07:53:14.539Z,995.14
2016-04-11T07:54:14.541Z,995.12
2016-04-11T07:55:14.560Z,995.15
2016-04-11T07:56:14.563Z,995.14
2016-04-11T07:57:14.768Z,995.12
2016-04-11T07:58:14.568Z,995.09
2016-04-11T07:59:14.571Z,995.13
2016-04-11T08:00:14.573Z,995.04
2016-04-11T08:01:14.576Z,995.06
2016-04-11T08:02:14.579Z,995.11
2016-04-11T08:03:14.582Z,995.08
2016-04-11T08:04:14.584Z,995.08
2016-04-11T08:05:14.587Z,995.1
2016-04-11T08:06:14.605Z,995.07
2016-04-11T08:07:14.608Z,995.07
2016-04-11T08:08:14.626Z,995.08
2016-04-11T08:09:14.617Z,995.14
2016-04-11T08:10:14.621Z,995.14
2016-04-11T08:11:14.623Z,995.18
2016-04-11T08:12:14.641Z,995.19
2016-04-11T08:13:14.722Z,995.24
2016-04-11T08:14:14.647Z,995.21
2016-04-11T08:15:14.650Z,995.25
2016-04-11T08:16:14.668Z,995.26
2016-04-11T08:17:14.671Z,995.26
2016-04-11T08:18:14.679Z,995.25
2016-04-11T08:19:14.696Z,995.29
2016-04-11T08:20:14.685Z,995.27
2016-04-11T08:22:14.689Z,995.27
2016-04-11T08:23:14.692Z,995.27
2016-04-11T08:24:14.694Z,995.31
2016-04-11T08:25:14.713Z,995.29
2016-04-11T08:26:14.715Z,995.28
2016-04-11T08:27:14.718Z,995.25
2016-04-11T08:28:14.877Z,995.25
2016-04-11T08:29:14.739Z,995.25
2016-04-11T08:30:14.742Z,995.24
2016-04-11T08:31:14.964Z,995.22
2016-04-11T08:32:14.763Z,995.21
2016-04-11T08:33:14.750Z,995.22
2016-04-11T08:34:14.768Z,995.23
2016-04-11T08:35:14.959Z,995.22
2016-04-11T08:36:14.789Z,995.26
2016-04-11T08:37:14.776Z,995.25
2016-04-11T08:38:14.795Z,995.24
2016-04-11T08:39:14.813Z,995.19
2016-04-11T08:40:14.800Z,995.2
2016-04-11T08:41:15.037Z,995.17
2016-04-11T08:42:14.805Z,995.21
2016-04-11T08:43:14.855Z,995.21
2016-04-11T08:44:14.827Z,995.24
2016-04-11T08:45:14.829Z,995.24
2016-04-11T08:46:15.066Z,995.22
2016-04-11T08:47:14.850Z,995.2
2016-04-11T08:48:14.852Z,995.19
2016-04-11T08:49:14.855Z,995.13
2016-04-11T08:50:14.858Z,995.14
2016-04-11T08:51:14.877Z,995.13
2016-04-11T08:52:14.879Z,995.21
2016-04-11T08:53:14.881Z,995.18
2016-04-11T08:54:14.885Z,995.13
2016-04-11T08:55:14.903Z,995.16
2016-04-11T08:56:14.906Z,995.17
2016-04-11T08:57:14.908Z,995.2
2016-04-11T08:58:14.989Z,995.2
2016-04-11T08:59:14.929Z,995.17
2016-04-11T09:00:14.931Z,995.21
2016-04-11T09:01:14.935Z,995.22
2016-04-11T09:02:14.937Z,995.18
2016-04-11T09:03:14.940Z,995.18
2016-04-11T09:04:14.958Z,995.17
2016-04-11T09:05:14.961Z,995.19
2016-04-11T09:06:14.964Z,995.22
2016-04-11T09:07:14.966Z,995.21
2016-04-11T09:08:14.984Z,995.22
2016-04-11T09:09:14.987Z,995.21
2016-04-11T09:10:14.990Z,995.19
2016-04-11T09:11:14.992Z,995.2
2016-04-11T09:12:15.011Z,995.23
2016-04-11T09:13:15.030Z,995.26
2016-04-11T09:14:15.032Z,995.28
2016-04-11T09:15:15.019Z,995.34
2016-04-11T09:16:15.053Z,995.32
2016-04-11T09:17:15.040Z,995.29
2016-04-11T09:18:15.043Z,995.34
2016-04-11T09:19:15.061Z,995.36
2016-04-11T09:20:15.063Z,995.35
2016-04-11T09:21:15.098Z,995.42
2016-04-11T09:22:15.069Z,995.41
2016-04-11T09:23:15.104Z,995.43
2016-04-11T09:24:15.074Z,995.4
2016-04-11T09:25:15.093Z,995.44
2016-04-11T09:26:15.096Z,995.43
2016-04-11T09:27:15.114Z,995.44
2016-04-11T09:28:15.117Z,995.5
2016-04-11T09:29:15.120Z,995.48
2016-04-11T09:30:15.123Z,995.44
2016-04-11T09:31:15.125Z,995.46
2016-04-11T09:32:15.143Z,995.43
2016-04-11T09:33:15.161Z,995.39
2016-04-11T09:34:15.179Z,995.39
2016-04-11T09:35:15.167Z,995.38
2016-04-11T09:36:15.170Z,995.35
2016-04-11T09:37:15.203Z,995.33
2016-04-11T09:38:15.206Z,995.34
2016-04-11T09:39:15.193Z,995.29
2016-04-11T09:40:15.195Z,995.31
2016-04-11T09:41:15.230Z,995.3
2016-04-11T09:42:15.232Z,995.24
2016-04-11T09:43:15.423Z,995.21
2016-04-11T09:44:15.253Z,995.22
2016-04-11T09:45:15.240Z,995.2
2016-04-11T09:46:15.258Z,995.18
2016-04-11T09:47:15.261Z,995.18
2016-04-11T09:48:15.264Z,995.2
2016-04-11T09:49:15.283Z,995.15
2016-04-11T09:50:15.285Z,995.11
2016-04-11T09:51:15.288Z,995.15
2016-04-11T09:52:15.307Z,995.15
2016-04-11T09:53:15.309Z,995.22
2016-04-11T09:54:15.312Z,995.22
2016-04-11T09:55:15.329Z,995.2
2016-04-11T09:56:15.333Z,995.19
2016-04-11T09:57:15.335Z,995.22
2016-04-11T09:58:15.353Z,995.17
2016-04-11T09:59:15.356Z,995.17
2016-04-11T10:00:15.359Z,995.11
2016-04-11T10:01:15.377Z,995.14
2016-04-11T10:02:15.379Z,995.12
2016-04-11T10:03:15.414Z,995.15
2016-04-11T10:04:15.400Z,995.13
2016-04-11T10:05:15.404Z,995.15
2016-04-11T10:06:15.422Z,995.18
2016-04-11T10:07:15.425Z,995.15
2016-04-11T10:08:15.442Z,995.11
2016-04-11T10:09:15.462Z,995.09
2016-04-11T10:10:15.448Z,995.09
2016-04-11T10:11:15.467Z,995.08
2016-04-11T10:12:15.469Z,995.08
2016-04-11T10:13:15.472Z,995
2016-04-11T10:14:15.490Z,995.08
2016-04-11T10:15:15.493Z,995.07
2016-04-11T10:16:15.496Z,995.14
2016-04-11T10:17:15.529Z,995.16
2016-04-11T10:18:15.516Z,995.12
2016-04-11T10:19:15.519Z,995.09
2016-04-11T10:20:15.522Z,995.11
2016-04-11T10:21:15.540Z,995.07
2016-04-11T10:22:15.543Z,995.08
2016-04-11T10:23:15.561Z,995.08
2016-04-11T10:24:15.563Z,995.08
2016-04-11T10:25:15.566Z,995.07
2016-04-11T10:26:15.585Z,995.07
2016-04-11T10:27:15.634Z,995.1
2016-04-11T10:28:15.607Z,995.08
2016-04-11T10:29:15.624Z,995.06
2016-04-11T10:30:15.612Z,995.05
2016-04-11T10:31:15.614Z,995.05
2016-04-11T10:32:15.648Z,995.05
2016-04-11T10:33:15.635Z,995.02
2016-04-11T10:34:15.654Z,994.98
2016-04-11T10:35:15.656Z,994.97
2016-04-11T10:36:15.659Z,994.93
2016-04-11T10:37:15.677Z,994.9
2016-04-11T10:38:15.680Z,994.86
2016-04-11T10:39:15.698Z,994.85
2016-04-11T10:40:15.701Z,994.88
2016-04-11T10:41:15.766Z,994.86
2016-04-11T10:42:15.706Z,994.87
2016-04-11T10:43:15.725Z,994.89
2016-04-11T10:44:15.727Z,994.87
2016-04-11T10:45:15.745Z,994.89
2016-04-11T10:46:15.748Z,994.86
2016-04-11T10:47:15.766Z,994.86
2016-04-11T10:48:15.769Z,994.88
2016-04-11T10:49:15.772Z,994.86
2016-04-11T10:50:15.790Z,994.94
2016-04-11T10:51:15.824Z,994.93
2016-04-11T10:52:15.796Z,994.88
2016-04-11T10:53:15.830Z,994.83
2016-04-11T10:54:15.832Z,994.84
2016-04-11T10:55:15.819Z,994.84
2016-04-11T10:56:15.837Z,994.8
2016-04-11T10:57:15.857Z,994.75
2016-04-11T10:58:15.859Z,994.72
2016-04-11T10:59:15.862Z,994.73
2016-04-11T11:00:15.864Z,994.71
2016-04-11T11:01:15.867Z,994.64
2016-04-11T11:02:15.884Z,994.63
2016-04-11T11:03:15.888Z,994.65
2016-04-11T11:04:15.907Z,994.62
2016-04-11T11:05:15.909Z,994.61
2016-04-11T11:06:15.911Z,994.65
2016-04-11T11:07:15.929Z,994.62
2016-04-11T11:08:15.931Z,994.61
2016-04-11T11:09:15.951Z,994.6
2016-04-11T11:10:16.188Z,994.63
2016-04-11T11:11:15.956Z,994.65
2016-04-11T11:12:15.974Z,994.68
2016-04-11T11:13:16.009Z,994.64
2016-04-11T11:14:15.980Z,994.63
2016-04-11T11:15:15.998Z,994.6
2016-04-11T11:16:16.000Z,994.61
2016-04-11T11:17:16.004Z,994.59
2016-04-11T11:18:16.225Z,994.56
2016-04-11T11:19:16.024Z,994.62
2016-04-11T11:20:16.027Z,994.57
2016-04-11T11:21:16.046Z,994.6
2016-04-11T11:22:16.251Z,994.6
2016-04-11T11:23:16.082Z,994.59
2016-04-11T11:24:16.304Z,994.57
2016-04-11T11:25:16.275Z,994.58
2016-04-11T11:26:16.090Z,994.59
2016-04-11T11:27:16.093Z,994.62
2016-04-11T11:28:16.096Z,994.6
2016-04-11T11:29:16.114Z,994.59
2016-04-11T11:30:16.320Z,994.55
2016-04-11T11:31:16.119Z,994.54
2016-04-11T11:32:16.137Z,994.54
2016-04-11T11:33:16.140Z,994.54
2016-04-11T11:34:16.142Z,994.53
2016-04-11T11:35:16.145Z,994.51
2016-04-11T11:36:16.164Z,994.56
2016-04-11T11:37:16.167Z,994.56
2016-04-11T11:38:16.185Z,994.55
2016-04-11T11:39:16.187Z,994.53
2016-04-11T11:40:16.190Z,994.51
2016-04-11T11:41:16.193Z,994.53
2016-04-11T11:42:16.211Z,994.53
2016-04-11T11:43:16.214Z,994.54
2016-04-11T11:44:16.217Z,994.51
2016-04-11T11:45:16.236Z,994.5
2016-04-11T11:46:16.238Z,994.51
2016-04-11T11:47:16.241Z,994.48
2016-04-11T11:48:16.244Z,994.46
2016-04-11T11:49:16.261Z,994.45
2016-04-11T11:50:16.264Z,994.42
2016-04-11T11:51:16.282Z,994.43
2016-04-11T11:52:16.286Z,994.41
2016-04-11T11:53:16.382Z,994.41
2016-04-11T11:54:16.291Z,994.47
2016-04-11T11:55:16.293Z,994.43
2016-04-11T11:56:16.311Z,994.42
2016-04-11T11:57:16.314Z,994.42
2016-04-11T11:58:16.316Z,994.35
2016-04-11T11:59:16.335Z,994.35
2016-04-11T12:00:16.337Z,994.35
2016-04-11T12:01:16.341Z,994.34
2016-04-11T12:02:16.359Z,994.37
2016-04-11T12:03:16.361Z,994.32
2016-04-11T12:04:16.365Z,994.29
2016-04-11T12:05:16.368Z,994.31
2016-04-11T12:06:16.385Z,994.3
2016-04-11T12:07:16.387Z,994.32
2016-04-11T12:08:16.391Z,994.31
2016-04-11T12:09:16.408Z,994.36
2016-04-11T12:10:16.412Z,994.29
2016-04-11T12:11:16.414Z,994.32
2016-04-11T12:12:16.433Z,994.32
2016-04-11T12:13:16.436Z,994.35
2016-04-11T12:14:16.454Z,994.35
2016-04-11T12:15:16.441Z,994.32
2016-04-11T12:16:16.458Z,994.3
2016-04-11T12:17:16.462Z,994.26
2016-04-11T12:18:16.480Z,994.26
2016-04-11T12:19:16.483Z,994.18
2016-04-11T12:20:16.469Z,994.23
2016-04-11T12:21:16.488Z,994.24
2016-04-11T12:22:16.506Z,994.25
2016-04-11T12:23:16.494Z,994.23
2016-04-11T12:24:16.511Z,994.25
2016-04-11T12:25:16.514Z,994.22
2016-04-11T12:26:16.533Z,994.2
2016-04-11T12:27:16.535Z,994.2
2016-04-11T12:28:16.538Z,994.21
2016-04-11T12:29:16.556Z,994.19
2016-04-11T12:30:16.560Z,994.11
2016-04-11T12:31:16.562Z,994.11
2016-04-11T12:32:16.565Z,994.16
2016-04-11T12:33:16.567Z,994.16
2016-04-11T12:34:16.585Z,994.15
2016-04-11T12:35:16.588Z,994.17
2016-04-11T12:36:16.809Z,994.18
2016-04-11T12:37:16.593Z,994.16
2016-04-11T12:38:16.628Z,994.13
2016-04-11T12:39:16.709Z,994.12
2016-04-11T12:40:16.618Z,994.09
2016-04-11T12:41:16.636Z,994.11
2016-04-11T12:42:16.841Z,994.09
2016-04-11T12:43:16.656Z,994.06